createdAt,value
2018-07-12T00:01:50.921Z,97761.81
2018-07-12T00:04:18.214Z,97758.56
2018-07-12T00:06:46.338Z,97760.89
2018-07-12T00:09:14.540Z,97766.33
2018-07-12T00:11:42.018Z,97762.74
2018-07-12T00:14:10.318Z,97765.09
2018-07-12T00:16:38.378Z,97765.80
2018-07-12T00:19:06.051Z,97763.73
2018-07-12T00:21:34.333Z,97761.62
2018-07-12T00:24:01.644Z,97762.52
2018-07-12T00:26:29.858Z,97759.99
2018-07-12T00:28:59.430Z,97760.89
2018-07-12T00:31:27.415Z,97755.88
2018-07-12T00:33:54.854Z,97750.44
2018-07-12T00:36:22.176Z,97756.11
2018-07-12T00:38:49.492Z,97747.28
2018-07-12T00:41:16.891Z,97756.16
2018-07-12T00:43:44.411Z,97754.98
2018-07-12T00:46:11.821Z,97752.83
2018-07-12T00:48:39.139Z,97754.28
2018-07-12T00:51:06.616Z,97755.63
2018-07-12T00:53:33.997Z,97748.42
2018-07-12T00:56:01.351Z,97758.36
2018-07-12T00:58:29.319Z,97753.34
2018-07-12T01:00:57.478Z,97752.77
2018-07-12T01:03:25.038Z,97756.45
2018-07-12T01:05:52.449Z,97754.84
2018-07-12T01:08:19.905Z,97753.19
2018-07-12T01:10:48.012Z,97754.13
2018-07-12T01:13:15.412Z,97751.83
2018-07-12T01:15:43.337Z,97751.11
2018-07-12T01:18:11.475Z,97746.85
2018-07-12T01:20:38.800Z,97752.12
2018-07-12T01:23:06.770Z,97751.11
2018-07-12T01:25:34.094Z,97753.15
2018-07-12T01:28:02.203Z,97746.52
2018-07-12T01:30:29.539Z,97742.80
2018-07-12T01:32:57.039Z,97743.96
2018-07-12T01:35:24.368Z,97731.52
2018-07-12T01:37:52.329Z,97738.48
2018-07-12T01:40:20.699Z,97738.39
2018-07-12T01:42:48.635Z,97737.27
2018-07-12T01:45:16.029Z,97740.41
2018-07-12T01:47:44.115Z,97736.61
2018-07-12T01:50:12.256Z,97739.56
2018-07-12T01:52:40.877Z,97740.03
2018-07-12T01:55:08.910Z,97740.22
2018-07-12T01:57:36.264Z,97734.31
2018-07-12T02:00:03.704Z,97733.66
2018-07-12T02:02:31.220Z,97729.77
2018-07-12T02:04:58.656Z,97730.94
2018-07-12T02:07:26.440Z,97730.42
2018-07-12T02:09:54.673Z,97729.91
2018-07-12T02:12:22.378Z,97729.02
2018-07-12T02:14:49.963Z,97728.88
2018-07-12T02:17:18.684Z,97729.16
2018-07-12T02:19:46.004Z,97729.87
2018-07-12T02:22:13.977Z,97734.12
2018-07-12T02:24:42.074Z,97725.73
2018-07-12T02:27:09.441Z,97731.87
2018-07-12T02:29:36.808Z,97726.09
2018-07-12T02:32:04.388Z,97728.92
2018-07-12T02:34:32.427Z,97729.84
2018-07-12T02:36:59.759Z,97726.99
2018-07-12T02:39:27.074Z,97725.66
2018-07-12T02:41:54.538Z,97719.53
2018-07-12T02:44:22.109Z,97725.97
2018-07-12T02:46:49.490Z,97728.02
2018-07-12T02:49:17.392Z,97724.27
2018-07-12T02:51:44.805Z,97724.97
2018-07-12T02:54:13.100Z,97730.31
2018-07-12T02:56:40.419Z,97728.92
2018-07-12T02:59:08.653Z,97733.12
2018-07-12T03:01:36.614Z,97738.09
2018-07-12T03:04:04.720Z,97736.17
2018-07-12T03:06:32.025Z,97740.83
2018-07-12T03:08:59.711Z,97741.02
2018-07-12T03:11:27.691Z,97731.59
2018-07-12T03:13:55.628Z,97729.45
2018-07-12T03:16:23.702Z,97723.35
2018-07-12T03:18:52.502Z,97724.00
2018-07-12T03:21:20.169Z,97714.40
2018-07-12T03:23:47.513Z,97719.50
2018-07-12T03:26:15.156Z,97716.22
2018-07-12T03:28:42.652Z,97722.47
2018-07-12T03:31:09.963Z,97723.95
2018-07-12T03:33:37.375Z,97721.15
2018-07-12T03:36:04.678Z,97727.38
2018-07-12T03:38:32.039Z,97734.45
2018-07-12T03:40:59.383Z,97737.74
2018-07-12T03:43:27.520Z,97735.34
2018-07-12T03:45:54.871Z,97738.67
2018-07-12T03:48:23.031Z,97743.69
2018-07-12T03:50:50.429Z,97745.32
2018-07-12T03:53:18.410Z,97759.02
2018-07-12T03:55:46.711Z,97755.36
2018-07-12T03:58:14.405Z,97757.52
2018-07-12T04:00:41.742Z,97758.41
2018-07-12T04:03:09.075Z,97756.67
2018-07-12T04:05:36.534Z,97758.69
2018-07-12T04:08:04.100Z,97760.16
2018-07-12T04:10:31.671Z,97761.14
2018-07-12T04:12:59.012Z,97761.98
2018-07-12T04:15:26.329Z,97754.86
2018-07-12T04:17:54.366Z,97760.27
2018-07-12T04:20:21.996Z,97751.87
2018-07-12T04:22:49.321Z,97751.14
2018-07-12T04:25:17.234Z,97751.05
2018-07-12T04:27:45.476Z,97744.72
2018-07-12T04:30:13.545Z,97742.70
2018-07-12T04:32:41.920Z,97747.16
2018-07-12T04:35:09.451Z,97750.38
2018-07-12T04:37:36.809Z,97752.73
2018-07-12T04:40:04.406Z,97752.28
2018-07-12T04:42:31.816Z,97747.46
2018-07-12T04:44:59.120Z,97753.48
2018-07-12T04:47:26.429Z,97739.90
2018-07-12T04:49:54.548Z,97735.77
2018-07-12T04:52:27.403Z,97735.53
2018-07-12T04:54:55.382Z,97732.36
2018-07-12T04:57:24.690Z,97738.91
2018-07-12T04:59:52.053Z,97745.69
2018-07-12T05:02:19.490Z,97749.00
2018-07-12T05:04:46.805Z,97752.59
2018-07-12T05:07:14.894Z,97762.06
2018-07-12T05:09:42.331Z,97758.11
2018-07-12T05:12:09.695Z,97753.34
2018-07-12T05:14:37.059Z,97758.67
2018-07-12T05:17:05.279Z,97753.16
2018-07-12T05:19:34.257Z,97754.80
2018-07-12T05:22:02.276Z,97750.39
2018-07-12T05:24:29.665Z,97755.41
2018-07-12T05:26:57.014Z,97753.39
2018-07-12T05:29:25.209Z,97763.27
2018-07-12T05:31:53.306Z,97767.55
2018-07-12T05:34:20.631Z,97769.27
2018-07-12T05:36:58.112Z,97769.05
2018-07-12T05:39:27.685Z,97774.16
2018-07-12T05:41:56.494Z,97767.69
2018-07-12T05:44:26.700Z,97772.98
2018-07-12T05:46:56.628Z,97776.63
2018-07-12T05:49:26.196Z,97775.93
2018-07-12T05:51:56.104Z,97783.43
2018-07-12T05:54:26.733Z,97782.62
2018-07-12T05:56:56.347Z,97779.96
2018-07-12T05:59:27.684Z,97785.58
2018-07-12T06:02:07.438Z,97787.30
2018-07-12T06:04:36.872Z,97777.47
2018-07-12T06:07:06.485Z,97785.66
2018-07-12T06:09:36.078Z,97780.55
2018-07-12T06:12:05.336Z,97781.94
2018-07-12T06:14:34.834Z,97789.58
2018-07-12T06:17:03.457Z,97797.17
2018-07-12T06:19:33.297Z,97800.31
2018-07-12T06:22:01.998Z,97799.89
2018-07-12T06:24:33.239Z,97808.01
2018-07-12T06:27:02.559Z,97808.22
2018-07-12T06:29:32.249Z,97809.09
2018-07-12T06:32:01.584Z,97806.97
2018-07-12T06:34:30.861Z,97816.72
2018-07-12T06:37:01.600Z,97815.23
2018-07-12T06:39:31.233Z,97813.48
2018-07-12T06:42:02.308Z,97813.95
2018-07-12T06:44:31.653Z,97820.76
2018-07-12T06:47:00.990Z,97825.97
2018-07-12T06:49:30.379Z,97824.20
2018-07-12T06:51:59.115Z,97822.73
2018-07-12T06:54:27.742Z,97828.07
2018-07-12T06:56:57.524Z,97831.59
2018-07-12T06:59:26.200Z,97827.69
2018-07-12T07:01:55.187Z,97823.33
2018-07-12T07:04:23.800Z,97834.14
2018-07-12T07:06:53.065Z,97831.47
2018-07-12T07:09:22.303Z,97835.32
2018-07-12T07:11:52.945Z,97837.45
2018-07-12T07:14:23.494Z,97831.01
2018-07-12T07:16:52.278Z,97835.73
2018-07-12T07:19:21.677Z,97833.97
2018-07-12T07:21:52.533Z,97838.39
2018-07-12T07:24:22.212Z,97827.19
2018-07-12T07:26:51.852Z,97830.28
2018-07-12T07:29:20.658Z,97830.21
2018-07-12T07:31:50.352Z,97833.16
2018-07-12T07:34:19.844Z,97825.50
2018-07-12T07:36:48.747Z,97835.15
2018-07-12T07:39:18.739Z,97836.91
2018-07-12T07:41:48.085Z,97829.89
2018-07-12T07:44:16.898Z,97843.35
2018-07-12T07:46:47.094Z,97837.98
2018-07-12T07:49:16.224Z,97843.66
2018-07-12T07:51:44.884Z,97849.48
2018-07-12T07:54:14.924Z,97850.34
2018-07-12T07:56:44.720Z,97856.61
2018-07-12T07:59:15.185Z,97859.12
2018-07-12T08:01:43.804Z,97855.48
2018-07-12T08:04:14.024Z,97860.45
2018-07-12T08:06:42.769Z,97855.94
2018-07-12T08:09:11.504Z,97855.23
2018-07-12T08:11:41.655Z,97866.27
2018-07-12T08:14:10.437Z,97863.88
2018-07-12T08:16:39.834Z,97861.98
2018-07-12T08:19:08.480Z,97865.36
2018-07-12T08:21:37.014Z,97864.48
2018-07-12T08:24:07.511Z,97865.57
2018-07-12T08:26:36.812Z,97869.33
2018-07-12T08:29:06.377Z,97876.54
2018-07-12T08:31:36.035Z,97874.31
2018-07-12T08:34:05.548Z,97875.86
2018-07-12T08:36:34.161Z,97880.19
2018-07-12T08:39:04.250Z,97875.84
2018-07-12T08:41:32.950Z,97876.78
2018-07-12T08:44:02.766Z,97875.11
2018-07-12T08:46:31.475Z,97877.11
2018-07-12T08:49:00.295Z,97871.93
2018-07-12T08:51:29.836Z,97871.59
2018-07-12T08:53:59.506Z,97869.70
2018-07-12T08:56:28.963Z,97874.92
2018-07-12T08:58:57.737Z,97879.41
2018-07-12T09:01:27.151Z,97876.00
2018-07-12T09:03:57.085Z,97882.13
2018-07-12T09:06:25.988Z,97878.70
2018-07-12T09:08:55.421Z,97878.72
2018-07-12T09:11:24.718Z,97877.66
2018-07-12T09:13:55.448Z,97876.28
2018-07-12T09:16:24.169Z,97872.83
2018-07-12T09:18:52.819Z,97879.83
2018-07-12T09:21:22.141Z,97876.27
2018-07-12T09:23:50.905Z,97873.80
2018-07-12T09:26:19.492Z,97870.64
2018-07-12T09:28:48.541Z,97871.56
2018-07-12T09:31:17.334Z,97871.30
2018-07-12T09:33:46.639Z,97872.88
2018-07-12T09:36:15.282Z,97877.09
2018-07-12T09:38:50.285Z,97876.73
2018-07-12T09:41:19.681Z,97872.38
2018-07-12T09:43:48.794Z,97874.32
2018-07-12T09:46:17.690Z,97878.44
2018-07-12T09:48:47.763Z,97873.45
2018-07-12T09:51:16.922Z,97877.37
2018-07-12T09:53:46.605Z,97877.42
2018-07-12T09:56:15.437Z,97882.63
2018-07-12T09:58:44.267Z,97879.22
2018-07-12T10:01:18.453Z,97881.30
2018-07-12T10:03:53.918Z,97882.44
2018-07-12T10:06:30.953Z,97881.42
2018-07-12T10:09:04.347Z,97883.64
2018-07-12T10:11:39.115Z,97885.45
2018-07-12T10:14:13.161Z,97884.50
2018-07-12T10:16:49.994Z,97876.02
2018-07-12T10:19:19.416Z,97872.27
2018-07-12T10:21:49.700Z,97875.71
2018-07-12T10:24:19.056Z,97876.30
2018-07-12T10:26:47.720Z,97876.84
2018-07-12T10:29:17.012Z,97873.48
2018-07-12T10:31:45.678Z,97875.80
2018-07-12T10:34:15.984Z,97866.20
2018-07-12T10:36:45.138Z,97867.92
2018-07-12T10:39:13.863Z,97869.19
2018-07-12T10:41:42.455Z,97866.93
2018-07-12T10:44:12.229Z,97868.80
2018-07-12T10:46:41.083Z,97860.91
2018-07-12T10:49:10.458Z,97856.94
2018-07-12T10:51:39.265Z,97855.09
2018-07-12T10:54:07.926Z,97864.60
2018-07-12T10:56:36.873Z,97862.41
2018-07-12T10:59:06.034Z,97861.62
2018-07-12T11:01:36.110Z,97856.95
2018-07-12T11:04:05.084Z,97857.30
2018-07-12T11:06:34.469Z,97853.28
2018-07-12T11:09:03.266Z,97857.05
2018-07-12T11:11:32.132Z,97857.47
2018-07-12T11:14:02.562Z,97857.91
2018-07-12T11:16:32.541Z,97861.36
2018-07-12T11:19:01.200Z,97860.95
2018-07-12T11:21:29.931Z,97860.33
2018-07-12T11:23:58.510Z,97852.67
2018-07-12T11:26:27.496Z,97855.11
2018-07-12T11:28:56.229Z,97859.08
2018-07-12T11:31:26.105Z,97856.38
2018-07-12T11:33:55.470Z,97854.82
2018-07-12T11:36:24.234Z,97854.00
2018-07-12T11:38:53.573Z,97853.85
2018-07-12T11:41:22.184Z,97848.02
2018-07-12T11:43:50.871Z,97852.00
2018-07-12T11:46:21.378Z,97851.11
2018-07-12T11:48:51.452Z,97859.52
2018-07-12T11:51:20.700Z,97859.05
2018-07-12T11:53:49.365Z,97854.00
2018-07-12T11:56:18.148Z,97861.94
2018-07-12T11:58:48.008Z,97850.14
2018-07-12T12:01:17.931Z,97854.06
2018-07-12T12:03:47.534Z,97856.17
2018-07-12T12:06:16.227Z,97853.81
2018-07-12T12:08:44.919Z,97858.73
2018-07-12T12:11:13.562Z,97852.41
2018-07-12T12:13:42.739Z,97855.12
2018-07-12T12:16:11.578Z,97845.32
2018-07-12T12:18:40.255Z,97847.29
2018-07-12T12:21:09.020Z,97848.56
2018-07-12T12:23:38.269Z,97845.22
2018-07-12T12:26:07.594Z,97845.47
2018-07-12T12:28:36.220Z,97849.59
2018-07-12T12:31:04.933Z,97848.28
2018-07-12T12:33:33.582Z,97844.02
2018-07-12T12:36:02.270Z,97845.19
2018-07-12T12:38:31.284Z,97842.47
2018-07-12T12:41:00.822Z,97846.91
2018-07-12T12:43:29.413Z,97846.94
2018-07-12T12:45:58.058Z,97856.88
2018-07-12T12:48:26.643Z,97850.31
2018-07-12T12:50:56.160Z,97851.27
2018-07-12T12:53:24.871Z,97851.35
2018-07-12T12:55:55.026Z,97852.92
2018-07-12T12:58:23.672Z,97847.16
2018-07-12T13:00:52.242Z,97846.52
2018-07-12T13:03:21.104Z,97849.80
2018-07-12T13:05:49.713Z,97846.61
2018-07-12T13:08:18.359Z,97841.78
2018-07-12T13:10:47.026Z,97843.94
2018-07-12T13:13:15.707Z,97844.21
2018-07-12T13:15:44.363Z,97840.63
2018-07-12T13:18:13.155Z,97842.77
2018-07-12T13:20:41.932Z,97840.56
2018-07-12T13:23:10.807Z,97843.30
2018-07-12T13:25:40.281Z,97841.31
2018-07-12T13:28:09.128Z,97840.72
2018-07-12T13:30:37.709Z,97840.84
2018-07-12T13:33:06.414Z,97841.52
2018-07-12T13:35:35.029Z,97838.58
2018-07-12T13:38:03.649Z,97844.48
2018-07-12T13:40:32.258Z,97840.80
2018-07-12T13:43:01.244Z,97847.27
2018-07-12T13:45:30.809Z,97843.77
2018-07-12T13:47:59.410Z,97837.41
2018-07-12T13:50:28.500Z,97833.84
2018-07-12T13:52:57.814Z,97838.33
2018-07-12T13:55:26.431Z,97840.27
2018-07-12T13:57:55.530Z,97839.24
2018-07-12T14:00:24.313Z,97839.18
2018-07-12T14:02:52.905Z,97841.73
2018-07-12T14:05:21.540Z,97833.95
2018-07-12T14:07:50.147Z,97829.85
2018-07-12T14:10:19.100Z,97829.37
2018-07-12T14:12:47.690Z,97831.33
2018-07-12T14:15:16.464Z,97829.33
2018-07-12T14:17:45.094Z,97823.93
2018-07-12T14:20:13.679Z,97823.70
2018-07-12T14:22:42.449Z,97826.44
2018-07-12T14:25:11.057Z,97822.47
2018-07-12T14:27:39.834Z,97819.52
2018-07-12T14:30:08.504Z,97830.01
2018-07-12T14:32:37.215Z,97824.50
2018-07-12T14:35:05.905Z,97814.52
2018-07-12T14:37:34.579Z,97810.38
2018-07-12T14:40:04.044Z,97815.23
2018-07-12T14:42:33.584Z,97812.45
2018-07-12T14:45:02.259Z,97809.73
2018-07-12T14:47:30.960Z,97814.13
2018-07-12T14:49:59.584Z,97807.24
2018-07-12T14:52:28.225Z,97810.45
2018-07-12T14:54:56.938Z,97812.98
2018-07-12T14:57:25.609Z,97803.36
2018-07-12T14:59:54.234Z,97808.27
2018-07-12T15:02:22.934Z,97805.29
2018-07-12T15:04:51.564Z,97805.69
2018-07-12T15:07:20.240Z,97800.21
2018-07-12T15:09:49.194Z,97801.92
2018-07-12T15:12:17.892Z,97804.26
2018-07-12T15:14:47.273Z,97808.73
2018-07-12T15:17:15.979Z,97804.89
2018-07-12T15:19:45.568Z,97804.02
2018-07-12T15:22:14.230Z,97800.11
2018-07-12T15:24:42.878Z,97809.20
2018-07-12T15:27:11.844Z,97800.72
2018-07-12T15:29:40.556Z,97801.11
2018-07-12T15:32:09.256Z,97799.53
2018-07-12T15:34:38.050Z,97797.16
2018-07-12T15:37:06.954Z,97790.27
2018-07-12T15:39:36.823Z,97793.27
2018-07-12T15:42:06.657Z,97793.27
2018-07-12T15:44:35.386Z,97786.83
2018-07-12T15:47:04.331Z,97787.05
2018-07-12T15:49:33.347Z,97788.91
2018-07-12T15:52:02.261Z,97792.12
2018-07-12T15:54:31.041Z,97788.52
2018-07-12T15:56:59.831Z,97788.52
2018-07-12T15:59:29.027Z,97787.49
2018-07-12T16:01:59.046Z,97795.77
2018-07-12T16:04:28.494Z,97795.77
2018-07-12T16:06:57.912Z,97790.87
2018-07-12T16:09:27.305Z,97790.80
2018-07-12T16:11:55.916Z,97793.19
2018-07-12T16:14:25.152Z,97797.75
2018-07-12T16:16:54.050Z,97795.20
2018-07-12T16:19:22.975Z,97791.81
2018-07-12T16:21:52.498Z,97792.63
2018-07-12T16:24:21.541Z,97790.48
2018-07-12T16:26:50.775Z,97796.41
2018-07-12T16:29:19.460Z,97787.34
2018-07-12T16:31:48.479Z,97797.20
2018-07-12T16:34:17.184Z,97790.16
2018-07-12T16:36:46.371Z,97793.24
2018-07-12T16:39:16.088Z,97795.83
2018-07-12T16:41:45.004Z,97792.59
2018-07-12T16:44:14.647Z,97793.13
2018-07-12T16:46:44.163Z,97789.64
2018-07-12T16:49:12.810Z,97789.98
2018-07-12T16:51:43.133Z,97791.41
2018-07-12T16:54:11.869Z,97794.00
2018-07-12T16:56:40.581Z,97800.41
2018-07-12T16:59:09.285Z,97794.97
2018-07-12T17:01:39.013Z,97795.93
2018-07-12T17:04:07.773Z,97794.37
2018-07-12T17:06:37.388Z,97790.74
2018-07-12T17:09:07.801Z,97797.06
2018-07-12T17:11:38.628Z,97801.44
2018-07-12T17:14:07.306Z,97796.78
2018-07-12T17:16:35.913Z,97801.82
2018-07-12T17:19:04.575Z,97799.72
2018-07-12T17:21:33.213Z,97809.55
2018-07-12T17:24:01.914Z,97805.55
2018-07-12T17:26:31.143Z,97808.18
2018-07-12T17:29:00.113Z,97806.16
2018-07-12T17:31:28.829Z,97813.02
2018-07-12T17:33:57.559Z,97810.59
2018-07-12T17:36:26.332Z,97815.19
2018-07-12T17:38:55.069Z,97812.31
2018-07-12T17:41:23.724Z,97810.23
2018-07-12T17:43:52.451Z,97816.47
2018-07-12T17:46:21.557Z,97817.84
2018-07-12T17:48:50.900Z,97817.20
2018-07-12T17:51:19.593Z,97820.38
2018-07-12T17:53:49.235Z,97815.20
2018-07-12T17:56:17.950Z,97818.77
2018-07-12T17:58:46.524Z,97816.47
2018-07-12T18:01:15.942Z,97811.28
2018-07-12T18:03:44.615Z,97818.27
2018-07-12T18:06:13.346Z,97818.59
2018-07-12T18:08:41.976Z,97823.13
2018-07-12T18:11:10.988Z,97814.84
2018-07-12T18:13:40.725Z,97824.83
2018-07-12T18:16:10.953Z,97821.92
2018-07-12T18:18:40.431Z,97823.13
2018-07-12T18:21:09.166Z,97821.80
2018-07-12T18:23:38.174Z,97812.52
2018-07-12T18:26:06.864Z,97821.84
2018-07-12T18:28:35.501Z,97824.59
2018-07-12T18:31:04.566Z,97820.83
2018-07-12T18:33:33.227Z,97825.20
2018-07-12T18:36:02.765Z,97823.78
2018-07-12T18:38:31.562Z,97825.70
2018-07-12T18:41:00.215Z,97829.86
2018-07-12T18:43:29.565Z,97829.23
2018-07-12T18:45:58.495Z,97832.78
2018-07-12T18:48:27.197Z,97833.56
2018-07-12T18:50:56.230Z,97832.78
2018-07-12T18:53:24.890Z,97833.86
2018-07-12T18:55:53.629Z,97833.77
2018-07-12T18:58:22.312Z,97842.48
2018-07-12T19:00:51.072Z,97843.64
2018-07-12T19:03:19.779Z,97842.58
2018-07-12T19:05:48.521Z,97848.12
2018-07-12T19:08:17.219Z,97850.50
2018-07-12T19:10:45.909Z,97853.78
2018-07-12T19:13:14.518Z,97857.61
2018-07-12T19:15:43.143Z,97852.86
2018-07-12T19:18:11.837Z,97856.08
2018-07-12T19:20:40.654Z,97857.50
2018-07-12T19:23:09.297Z,97861.91
2018-07-12T19:25:37.974Z,97868.34
2018-07-12T19:28:06.631Z,97868.92
2018-07-12T19:30:35.266Z,97874.78
2018-07-12T19:33:03.911Z,97877.10
2018-07-12T19:35:32.658Z,97871.11
2018-07-12T19:38:01.562Z,97880.50
2018-07-12T19:40:30.311Z,97885.62
2018-07-12T19:42:59.981Z,97875.07
2018-07-12T19:45:28.648Z,97886.84
2018-07-12T19:47:57.336Z,97893.20
2018-07-12T19:50:25.949Z,97894.88
2018-07-12T19:52:55.061Z,97898.17
2018-07-12T19:55:23.807Z,97906.33
2018-07-12T19:57:52.845Z,97912.37
2018-07-12T20:00:21.490Z,97915.05
2018-07-12T20:02:50.298Z,97918.41
2018-07-12T20:05:19.349Z,97919.09
2018-07-12T20:07:48.017Z,97914.77
2018-07-12T20:10:16.701Z,97923.31
2018-07-12T20:12:45.601Z,97918.84
2018-07-12T20:15:14.306Z,97926.44
2018-07-12T20:17:43.343Z,97922.38
2018-07-12T20:20:11.996Z,97925.64
2018-07-12T20:22:40.770Z,97932.19
2018-07-12T20:25:09.567Z,97928.08
2018-07-12T20:27:38.255Z,97934.98
2018-07-12T20:30:07.052Z,97933.39
2018-07-12T20:32:35.698Z,97929.50
2018-07-12T20:35:04.324Z,97927.56
2018-07-12T20:37:33.058Z,97931.55
2018-07-12T20:40:01.900Z,97928.64
2018-07-12T20:42:30.600Z,97926.73
2018-07-12T20:44:59.282Z,97932.53
2018-07-12T20:47:27.913Z,97933.02
2018-07-12T20:49:56.621Z,97933.28
2018-07-12T20:52:25.258Z,97936.27
2018-07-12T20:54:54.100Z,97934.43
2018-07-12T20:57:22.892Z,97940.22
2018-07-12T20:59:51.521Z,97935.86
2018-07-12T21:02:21.031Z,97934.66
2018-07-12T21:04:49.741Z,97941.14
2018-07-12T21:07:19.364Z,97940.09
2018-07-12T21:09:47.961Z,97943.58
2018-07-12T21:12:16.609Z,97948.03
2018-07-12T21:14:45.197Z,97946.64
2018-07-12T21:17:14.099Z,97945.99
2018-07-12T21:19:43.099Z,97948.95
2018-07-12T21:22:11.750Z,97947.36
2018-07-12T21:24:40.423Z,97949.20
2018-07-12T21:27:09.076Z,97955.80
2018-07-12T21:29:37.728Z,97950.38
2018-07-12T21:32:06.451Z,97950.75
2018-07-12T21:34:35.089Z,97945.48
2018-07-12T21:37:03.896Z,97951.78
2018-07-12T21:39:32.934Z,97960.09
2018-07-12T21:42:01.538Z,97956.45
2018-07-12T21:44:30.326Z,97956.72
2018-07-12T21:46:58.880Z,97960.03
2018-07-12T21:49:27.976Z,97956.94
2018-07-12T21:51:56.618Z,97958.89
2018-07-12T21:54:25.206Z,97964.48
2018-07-12T21:56:53.925Z,97971.52
2018-07-12T21:59:22.557Z,97976.52
2018-07-12T22:01:51.315Z,97985.35
2018-07-12T22:04:19.958Z,97981.14
2018-07-12T22:07:01.677Z,97982.63
2018-07-12T22:09:30.430Z,97976.60
2018-07-12T22:11:59.123Z,97980.68
2018-07-12T22:14:27.717Z,97981.27
2018-07-12T22:16:56.339Z,97978.43
2018-07-12T22:19:24.961Z,97980.48
2018-07-12T22:21:53.697Z,97982.39
2018-07-12T22:24:22.602Z,97984.89
2018-07-12T22:26:51.253Z,97985.02
2018-07-12T22:29:19.958Z,97979.27
2018-07-12T22:31:48.546Z,97981.84
2018-07-12T22:34:17.207Z,97977.76
2018-07-12T22:36:45.853Z,97982.20
2018-07-12T22:39:14.933Z,97977.63
2018-07-12T22:41:43.637Z,97979.90
2018-07-12T22:44:12.281Z,97989.67
2018-07-12T22:46:40.885Z,97990.36
2018-07-12T22:49:09.602Z,97986.38
2018-07-12T22:51:38.139Z,97990.33
2018-07-12T22:54:07.098Z,97985.77
2018-07-12T22:56:35.687Z,97987.94
2018-07-12T22:59:04.372Z,97987.92
2018-07-12T23:01:32.973Z,97980.39
2018-07-12T23:04:01.554Z,97998.66
2018-07-12T23:06:31.006Z,97992.98
2018-07-12T23:08:59.610Z,97994.58
2018-07-12T23:11:28.194Z,97992.88
2018-07-12T23:13:56.796Z,97991.52
2018-07-12T23:16:25.352Z,97988.64
2018-07-12T23:18:53.936Z,97991.09
2018-07-12T23:21:23.418Z,97989.17
2018-07-12T23:23:52.270Z,97985.22
2018-07-12T23:26:21.015Z,97988.30
2018-07-12T23:28:49.595Z,97990.90
2018-07-12T23:31:18.357Z,97987.18
2018-07-12T23:33:47.006Z,97988.31
2018-07-12T23:36:15.692Z,97993.33
2018-07-12T23:38:44.318Z,97989.57
2018-07-12T23:41:12.961Z,97993.09
2018-07-12T23:43:41.610Z,97996.80
2018-07-12T23:46:10.213Z,97995.17
2018-07-12T23:48:38.824Z,97995.27
2018-07-12T23:51:07.665Z,97993.30
2018-07-12T23:53:36.697Z,97986.02
2018-07-12T23:56:06.235Z,97986.91
2018-07-12T23:58:34.888Z,97988.17
